Time;durP1;ratioP1;P1;durP2;ratioP2;P2;SDS_P1;SDS_P2;PMS_P1;PMS_P2;Temp;Humidity;BMP_temperature;BMP_pressure;BME280_temperature;BME280_humidity;BME280_pressure;Samples;Min_cycle;Max_cycle;Signal;HPM_P1;HPM_P2
2023/07/21 00:01:11;;;;;;;8.77;2.67;;;23.80;72.70;;;;;;5033255;28;20407;-90
2023/07/21 00:03:46;;;;;;;2.97;2.40;;;23.80;72.50;;;;;;5031408;28;20411;-89
2023/07/21 00:06:24;;;;;;;4.03;2.30;;;23.80;72.40;;;;;;5032186;28;20403;-88
2023/07/21 00:08:53;;;;;;;5.03;2.40;;;23.80;72.70;;;;;;5038931;28;20415;-88
2023/07/21 00:11:21;;;;;;;5.10;2.60;;;23.80;72.60;;;;;;5054291;28;20900;-87
2023/07/21 00:13:47;;;;;;;4.30;2.50;;;23.80;72.80;;;;;;5026468;28;20421;-87
2023/07/21 00:16:13;;;;;;;7.77;2.63;;;23.90;72.30;;;;;;5023649;28;20411;-88
2023/07/21 00:18:41;;;;;;;5.20;2.60;;;23.90;72.70;;;;;;5027264;28;20923;-87
2023/07/21 00:21:09;;;;;;;4.47;2.50;;;23.90;72.60;;;;;;5047801;28;20425;-88
2023/07/21 00:23:36;;;;;;;4.22;2.50;;;23.90;73.00;;;;;;5026820;28;21057;-86
2023/07/21 00:26:02;;;;;;;4.65;2.60;;;23.90;73.50;;;;;;5041609;28;20404;-87
2023/07/21 00:28:29;;;;;;;4.38;2.65;;;24.00;74.00;;;;;;5020998;28;20419;-88
2023/07/21 00:30:56;;;;;;;3.92;2.47;;;24.00;74.30;;;;;;5024975;28;20440;-87
2023/07/21 00:33:28;;;;;;;5.30;2.30;;;24.00;75.10;;;;;;5027801;28;20496;-88
2023/07/21 00:35:55;;;;;;;5.70;2.50;;;24.00;74.50;;;;;;5041486;28;20487;-88
2023/07/21 00:38:22;;;;;;;3.95;2.60;;;24.00;74.60;;;;;;5021471;28;20925;-87
2023/07/21 00:40:48;;;;;;;3.72;2.60;;;23.90;74.80;;;;;;5040263;28;20482;-87
2023/07/21 00:43:17;;;;;;;5.63;2.47;;;23.90;74.60;;;;;;5027074;28;20409;-88
2023/07/21 00:45:48;;;;;;;5.78;2.50;;;23.90;74.60;;;;;;5026941;28;20452;-87
2023/07/21 00:48:18;;;;;;;5.18;2.58;;;23.90;74.60;;;;;;5026133;28;20990;-88
2023/07/21 00:50:51;;;;;;;3.70;2.53;;;23.90;74.70;;;;;;5040032;28;20417;-87
2023/07/21 00:53:20;;;;;;;3.90;2.47;;;24.00;74.90;;;;;;5042766;28;20452;-88
2023/07/21 00:55:50;;;;;;;4.95;2.70;;;24.00;74.60;;;;;;5024646;28;20413;-87
2023/07/21 00:58:19;;;;;;;4.70;2.70;;;24.00;74.60;;;;;;5036548;28;20978;-88
2023/07/21 01:00:46;;;;;;;3.80;2.73;;;24.00;74.60;;;;;;5034710;28;20413;-88
2023/07/21 01:03:18;;;;;;;6.85;2.40;;;24.00;74.30;;;;;;5021787;28;20405;-87
2023/07/21 01:05:52;;;;;;;4.00;2.60;;;24.00;74.20;;;;;;5027938;28;20406;-88
2023/07/21 01:08:19;;;;;;;4.93;2.55;;;23.90;74.10;;;;;;5054145;28;20405;-88
2023/07/21 01:10:47;;;;;;;3.90;2.60;;;23.80;74.20;;;;;;5039731;28;20909;-88
2023/07/21 01:13:15;;;;;;;3.35;2.50;;;23.80;74.50;;;;;;5039398;28;20409;-87
2023/07/21 01:15:48;;;;;;;5.85;2.67;;;23.90;74.70;;;;;;5047124;28;20410;-88
2023/07/21 01:18:25;;;;;;;5.60;2.60;;;23.80;74.90;;;;;;5017034;28;20417;-87
2023/07/21 01:20:53;;;;;;;3.83;2.58;;;23.90;75.30;;;;;;5024568;28;20440;-88
2023/07/21 01:23:42;;;;;;;6.18;2.63;;;23.90;75.30;;;;;;5035041;28;20488;-87
2023/07/21 01:26:11;;;;;;;4.78;2.42;;;23.90;75.50;;;;;;5045506;28;20495;-87
2023/07/21 01:28:42;;;;;;;4.00;2.30;;;23.80;75.70;;;;;;5037480;28;20728;-87
2023/07/21 01:31:09;;;;;;;3.88;2.35;;;23.90;75.70;;;;;;5026685;28;20513;-87
2023/07/21 01:33:38;;;;;;;3.95;2.47;;;23.90;75.80;;;;;;5030015;28;20430;-87
2023/07/21 01:36:07;;;;;;;4.20;2.60;;;23.90;75.40;;;;;;5039077;28;20498;-88
2023/07/21 01:38:42;;;;;;;3.72;2.50;;;23.80;74.80;;;;;;5044195;28;20408;-88
2023/07/21 01:41:12;;;;;;;5.82;2.50;;;23.80;74.80;;;;;;5029562;28;20408;-89
2023/07/21 01:43:39;;;;;;;4.10;2.40;;;23.80;74.40;;;;;;5040796;28;21001;-88
2023/07/21 01:46:10;;;;;;;3.30;2.50;;;23.80;74.00;;;;;;5053049;28;20407;-88
2023/07/21 01:48:37;;;;;;;4.75;2.45;;;23.70;73.70;;;;;;5034291;28;20909;-88
2023/07/21 01:51:06;;;;;;;2.60;2.20;;;23.70;73.50;;;;;;5028693;28;20413;-88
2023/07/21 01:53:37;;;;;;;3.88;2.33;;;23.70;73.70;;;;;;5033376;28;20414;-88
2023/07/21 01:56:12;;;;;;;5.45;2.67;;;23.80;73.70;;;;;;5046941;28;20940;-88
2023/07/21 01:58:42;;;;;;;4.15;2.40;;;23.70;73.50;;;;;;5023591;28;20427;-88
2023/07/21 02:01:11;;;;;;;5.55;2.60;;;23.80;73.40;;;;;;5037876;28;20436;-87
2023/07/21 02:03:39;;;;;;;3.97;2.50;;;23.70;73.70;;;;;;5024177;28;20420;-88
2023/07/21 02:06:17;;;;;;;4.22;2.30;;;23.80;74.30;;;;;;5027094;28;20412;-87
2023/07/21 02:08:44;;;;;;;6.97;2.55;;;23.80;74.50;;;;;;5024542;28;20465;-87
2023/07/21 02:11:11;;;;;;;3.00;2.10;;;23.80;74.40;;;;;;5020807;28;20506;-87
2023/07/21 02:13:39;;;;;;;3.53;2.17;;;23.80;74.90;;;;;;5022042;28;20906;-88
2023/07/21 02:16:05;;;;;;;3.55;2.30;;;23.80;74.10;;;;;;5042160;28;20507;-87
2023/07/21 02:18:38;;;;;;;3.60;2.22;;;23.80;74.00;;;;;;5017773;28;20411;-86
2023/07/21 02:21:04;;;;;;;5.88;2.40;;;23.80;73.90;;;;;;5024729;28;20468;-87
2023/07/21 02:23:31;;;;;;;3.97;2.20;;;23.80;73.70;;;;;;5027118;28;20526;-86
2023/07/21 02:26:01;;;;;;;2.85;2.10;;;23.80;73.40;;;;;;5025150;28;20532;-86
2023/07/21 02:28:27;;;;;;;4.27;2.00;;;23.80;73.40;;;;;;5033346;28;20554;-86
2023/07/21 02:31:03;;;;;;;4.50;2.20;;;23.80;73.40;;;;;;5033401;28;20918;-87
2023/07/21 02:33:31;;;;;;;3.10;2.08;;;23.80;73.50;;;;;;5039528;28;20438;-86
2023/07/21 02:36:04;;;;;;;6.10;2.30;;;23.90;73.70;;;;;;5028341;28;20435;-87
2023/07/21 02:38:30;;;;;;;2.90;2.10;;;23.80;73.30;;;;;;5027524;28;20407;-88
2023/07/21 02:41:03;;;;;;;3.83;1.90;;;23.80;73.00;;;;;;5040273;28;20426;-87
2023/07/21 03:00:17;;;;;;;3.25;2.20;;;23.80;71.90;;;;;;4928570;29;20475;-89
2023/07/21 03:11:13;;;;;;;3.60;1.93;;;23.90;71.90;;;;;;4928693;29;20502;-89
2023/07/21 04:07:41;;;;;;;2.40;2.00;;;24.20;72.90;;;;;;4916633;29;20438;-88
2023/07/21 04:43:15;;;;;;;5.38;2.00;;;24.70;74.50;;;;;;4884814;29;20434;-87
2023/07/21 04:46:31;;;;;;;4.15;2.28;;;24.80;75.20;;;;;;4870673;29;20425;-85
2023/07/21 04:49:53;;;;;;;3.65;2.15;;;24.90;75.90;;;;;;4891127;29;20423;-86
2023/07/21 04:53:19;;;;;;;3.40;1.98;;;25.10;76.30;;;;;;4894949;29;20443;-86
2023/07/21 04:56:15;;;;;;;4.05;2.30;;;25.20;78.00;;;;;;4834568;29;20432;-86
2023/07/21 04:59:19;;;;;;;;;;;;;;;;;;;;;
2023/07/21 05:06:26;;;;;;;7.03;2.42;;;25.50;73.60;;;;;;4836247;29;20438;-85
2023/07/21 05:13:29;;;;;;;5.22;2.30;;;25.80;72.60;;;;;;4840035;29;20431;-85
2023/07/21 05:16:35;;;;;;;5.88;2.22;;;25.90;73.20;;;;;;4830611;29;20468;-88
2023/07/21 05:20:01;;;;;;;;;;;;;;;;;;;;;
2023/07/21 05:22:38;;;;;;;6.57;2.27;;;26.10;74.50;;;;;;4802979;29;20447;-85
2023/07/21 05:26:04;;;;;;;5.88;2.17;;;26.20;74.40;;;;;;4871983;29;20941;-84
2023/07/21 05:29:18;;;;;;;9.57;2.20;;;26.30;74.70;;;;;;4876959;29;20437;-87
2023/07/21 05:33:03;;;;;;;6.97;2.40;;;26.40;73.80;;;;;;4923943;29;20535;-86
2023/07/21 05:36:30;;;;;;;4.20;2.20;;;26.40;73.30;;;;;;4947953;28;20412;-83
2023/07/21 05:39:53;;;;;;;7.20;2.65;;;26.50;74.10;;;;;;4987612;28;20773;-82
2023/07/21 05:43:45;;;;;;;8.05;2.47;;;26.60;74.10;;;;;;4930281;28;21014;-86
2023/07/21 05:46:46;;;;;;;7.57;2.50;;;26.70;74.60;;;;;;4912944;28;20531;-86
2023/07/21 05:49:38;;;;;;;7.63;2.63;;;26.80;75.60;;;;;;4932006;29;20427;-88
2023/07/21 05:55:58;;;;;;;6.30;2.33;;;26.90;76.30;;;;;;4925475;29;20459;-87
2023/07/21 05:58:24;;;;;;;5.80;2.28;;;26.90;74.90;;;;;;4933284;28;20520;-87
2023/07/21 06:01:11;;;;;;;4.38;2.30;;;27.00;74.20;;;;;;4989761;28;21148;-87
2023/07/21 06:03:39;;;;;;;3.90;2.33;;;27.10;74.80;;;;;;5018370;28;20515;-85
2023/07/21 06:06:05;;;;;;;6.05;2.35;;;27.20;74.50;;;;;;4987125;28;20413;-86
2023/07/21 06:08:34;;;;;;;4.72;2.40;;;27.20;74.80;;;;;;4986063;28;20482;-86
2023/07/21 06:11:02;;;;;;;6.85;2.30;;;27.30;75.30;;;;;;5003873;28;20414;-85
2023/07/21 06:13:30;;;;;;;4.50;2.40;;;27.30;75.60;;;;;;5008871;28;20411;-85
2023/07/21 06:15:58;;;;;;;4.30;2.37;;;27.40;75.50;;;;;;5003819;28;20421;-84
2023/07/21 06:18:25;;;;;;;3.92;2.50;;;27.50;75.90;;;;;;4985619;28;20912;-87
2023/07/21 06:20:52;;;;;;;5.23;2.60;;;27.60;75.50;;;;;;5002696;28;20424;-85
2023/07/21 06:23:19;;;;;;;4.17;2.30;;;27.70;76.30;;;;;;5016456;28;20421;-82
2023/07/21 06:25:46;;;;;;;3.97;2.58;;;27.80;76.70;;;;;;4993071;28;20407;-85
2023/07/21 06:28:13;;;;;;;6.70;2.55;;;27.90;76.10;;;;;;4988695;28;20571;-83
2023/07/21 06:30:41;;;;;;;4.85;2.30;;;28.00;76.40;;;;;;4991634;28;20473;-84
2023/07/21 06:33:08;;;;;;;4.95;2.40;;;28.00;80.50;;;;;;4989834;28;20576;-87
2023/07/21 06:35:35;;;;;;;3.78;2.05;;;28.10;85.80;;;;;;5005542;28;20409;-85
2023/07/21 06:38:01;;;;;;;6.90;2.20;;;28.20;90.20;;;;;;5039911;28;20475;-84
2023/07/21 06:40:34;;;;;;;6.03;2.30;;;28.20;91.20;;;;;;5006810;28;21047;-90
2023/07/21 06:43:01;;;;;;;5.85;2.40;;;28.30;90.00;;;;;;5015067;28;20416;-91
2023/07/21 06:45:27;;;;;;;4.80;2.30;;;28.40;89.10;;;;;;5039173;28;20409;-92
2023/07/21 06:47:53;;;;;;;5.53;2.40;;;28.40;90.80;;;;;;5052105;28;20411;-93
2023/07/21 06:50:20;;;;;;;5.05;2.40;;;28.50;91.30;;;;;;5034563;28;20488;-88
2023/07/21 06:52:47;;;;;;;5.13;2.40;;;28.50;90.80;;;;;;5028796;28;20416;-92
2023/07/21 06:55:14;;;;;;;4.50;2.25;;;28.60;89.10;;;;;;5010000;28;20997;-90
2023/07/21 06:57:41;;;;;;;5.47;2.33;;;28.60;87.30;;;;;;5037737;28;20544;-93
2023/07/21 07:00:12;;;;;;;13.00;2.67;;;28.70;91.30;;;;;;5027188;28;20414;-90
2023/07/21 07:02:39;;;;;;;5.60;2.10;;;28.80;91.50;;;;;;5035621;28;20824;-91
2023/07/21 07:05:06;;;;;;;4.30;2.30;;;28.90;90.50;;;;;;5029340;28;20405;-88
2023/07/21 07:07:33;;;;;;;5.45;2.05;;;28.90;92.60;;;;;;5012568;28;20426;-85
2023/07/21 07:10:00;;;;;;;6.80;2.13;;;28.90;92.40;;;;;;5032149;28;20444;-95
2023/07/21 07:12:26;;;;;;;4.47;2.30;;;29.00;92.40;;;;;;5018288;28;20397;-93
2023/07/21 07:14:59;;;;;;;5.40;2.30;;;29.10;93.10;;;;;;5030453;28;20439;-92
2023/07/21 07:17:28;;;;;;;7.80;2.30;;;29.20;92.50;;;;;;5024522;28;20419;-91
2023/07/21 07:19:56;;;;;;;6.70;2.35;;;29.30;93.80;;;;;;5041061;28;20806;-88
2023/07/21 07:22:22;;;;;;;9.73;2.60;;;29.40;93.80;;;;;;5033028;28;20413;-94
2023/07/21 07:25:16;;;;;;;5.20;2.33;;;29.40;93.00;;;;;;5029310;28;20410;-93
2023/07/21 07:28:12;;;;;;;6.77;2.40;;;29.50;92.00;;;;;;5039317;28;20757;-93
2023/07/21 07:30:48;;;;;;;7.70;2.40;;;29.60;92.40;;;;;;5042839;28;20408;-96
2023/07/21 07:33:16;;;;;;;8.73;2.33;;;29.60;92.90;;;;;;5061411;28;20407;-89
2023/07/21 07:35:52;;;;;;;5.80;2.17;;;29.70;93.10;;;;;;5052495;28;20906;-86
2023/07/21 07:38:24;;;;;;;6.27;2.30;;;29.70;93.10;;;;;;5034739;28;20928;-92
2023/07/21 07:40:53;;;;;;;5.10;2.30;;;29.90;93.10;;;;;;5034633;28;20811;-89
2023/07/21 07:43:20;;;;;;;9.27;3.45;;;29.90;92.90;;;;;;5038919;28;20458;-85
2023/07/21 07:45:48;;;;;;;6.88;2.33;;;30.00;92.40;;;;;;5068623;28;20415;-90
2023/07/21 07:48:16;;;;;;;6.28;2.70;;;30.00;92.00;;;;;;5031055;28;20438;-88
2023/07/21 07:50:47;;;;;;;4.03;2.35;;;30.10;92.20;;;;;;5044289;28;20409;-83
2023/07/21 07:53:14;;;;;;;6.55;2.20;;;30.10;92.70;;;;;;5044742;28;20407;-89
2023/07/21 07:55:45;;;;;;;5.43;2.20;;;30.30;92.30;;;;;;5038192;28;20438;-90
2023/07/21 07:58:12;;;;;;;7.60;2.73;;;30.40;92.90;;;;;;5033830;28;20405;-91
2023/07/21 08:00:45;;;;;;;7.65;2.30;;;30.40;90.80;;;;;;5028485;28;20426;-91
2023/07/21 08:03:11;;;;;;;5.72;3.20;;;30.50;90.90;;;;;;5044602;28;20412;-92
2023/07/21 08:05:42;;;;;;;4.28;2.38;;;30.50;87.40;;;;;;5045068;28;20502;-91
2023/07/21 08:08:09;;;;;;;4.93;2.10;;;30.70;90.20;;;;;;5033705;28;20504;-89
2023/07/21 08:10:41;;;;;;;4.47;2.17;;;30.70;90.70;;;;;;5028449;28;21306;-91
2023/07/21 08:13:09;;;;;;;3.78;2.05;;;30.90;89.50;;;;;;5024779;28;20409;-85
2023/07/21 08:15:46;;;;;;;8.57;4.95;;;31.00;87.20;;;;;;5029461;28;20764;-90
2023/07/21 08:18:12;;;;;;;5.88;3.10;;;31.10;82.50;;;;;;5021860;28;20409;-89
2023/07/21 08:20:40;;;;;;;5.60;3.05;;;31.20;76.90;;;;;;5036309;28;20439;-86
2023/07/21 08:23:07;;;;;;;8.38;3.05;;;31.40;74.70;;;;;;5035818;28;20415;-86
2023/07/21 08:25:44;;;;;;;5.88;3.28;;;31.50;77.90;;;;;;5026855;28;20413;-91
2023/07/21 08:28:17;;;;;;;4.85;3.10;;;31.70;77.40;;;;;;5034328;28;20442;-90
2023/07/21 08:30:44;;;;;;;5.50;2.20;;;31.80;77.60;;;;;;5025903;28;20717;-89
2023/07/21 08:33:13;;;;;;;3.63;2.15;;;32.00;79.70;;;;;;5036663;28;20823;-89
2023/07/21 08:35:39;;;;;;;6.07;4.88;;;32.20;80.30;;;;;;5036624;28;20490;-94
2023/07/21 08:38:18;;;;;;;3.72;2.72;;;32.40;81.60;;;;;;5027257;28;20474;-89
2023/07/21 08:40:53;;;;;;;4.70;2.65;;;32.50;81.00;;;;;;5046217;28;20481;-86
2023/07/21 08:43:20;;;;;;;4.00;2.25;;;32.60;81.80;;;;;;5057967;28;20933;-93
2023/07/21 08:45:59;;;;;;;5.50;2.10;;;32.80;82.40;;;;;;5027962;28;20401;-93
2023/07/21 08:48:35;;;;;;;5.55;2.20;;;32.80;82.30;;;;;;5027933;28;20407;-93
2023/07/21 08:51:03;;;;;;;6.15;2.55;;;32.90;82.90;;;;;;5048876;28;20418;-85
2023/07/21 08:53:37;;;;;;;3.72;2.20;;;32.90;82.70;;;;;;5021253;28;20568;-90
2023/07/21 08:56:31;;;;;;;2.53;2.17;;;33.00;81.40;;;;;;5044657;28;20417;-90
2023/07/21 08:59:07;;;;;;;4.35;2.30;;;33.20;82.20;;;;;;5049347;28;20417;-84
2023/07/21 09:01:42;;;;;;;3.92;2.25;;;33.30;83.90;;;;;;5044649;28;20407;-89
2023/07/21 09:04:26;;;;;;;4.87;2.20;;;33.40;82.10;;;;;;5024692;28;20414;-91
2023/07/21 09:06:58;;;;;;;3.77;2.50;;;33.50;83.30;;;;;;5028486;28;20415;-88
2023/07/21 09:09:31;;;;;;;5.00;2.23;;;33.60;87.70;;;;;;5043455;28;20423;-92
2023/07/21 09:12:14;;;;;;;5.00;2.63;;;33.60;88.50;;;;;;5044756;28;20583;-87
2023/07/21 09:14:44;;;;;;;7.65;2.70;;;33.80;83.90;;;;;;5039553;28;20511;-88
2023/07/21 09:17:15;;;;;;;6.55;2.50;;;33.90;87.40;;;;;;5039948;28;21307;-90
2023/07/21 09:19:48;;;;;;;5.90;2.50;;;33.90;92.00;;;;;;5035174;28;20734;-86
2023/07/21 09:22:23;;;;;;;5.47;2.80;;;33.90;91.50;;;;;;5015658;28;20934;-90
2023/07/21 09:24:51;;;;;;;6.88;2.60;;;34.00;86.50;;;;;;5061207;28;20457;-89
2023/07/21 09:27:20;;;;;;;4.40;2.58;;;34.10;90.80;;;;;;5032252;28;20467;-90
2023/07/21 09:29:47;;;;;;;5.15;2.50;;;34.20;91.60;;;;;;5026399;28;20476;-85
2023/07/21 09:32:28;;;;;;;5.47;2.50;;;34.20;91.70;;;;;;5038814;28;20441;-84
2023/07/21 09:35:05;;;;;;;4.80;2.50;;;34.20;91.70;;;;;;5025353;28;20466;-92
2023/07/21 09:37:35;;;;;;;10.65;2.50;;;34.20;91.40;;;;;;5023152;28;20470;-88
2023/07/21 09:40:09;;;;;;;6.32;2.40;;;34.20;91.70;;;;;;5058451;28;20690;-86
2023/07/21 09:42:38;;;;;;;5.65;2.50;;;34.30;92.00;;;;;;5053353;28;20425;-89
2023/07/21 09:45:08;;;;;;;5.10;2.30;;;34.50;91.90;;;;;;5033898;28;20461;-93
2023/07/21 09:47:39;;;;;;;5.95;2.60;;;34.60;92.00;;;;;;5035980;28;20486;-87
2023/07/21 09:50:06;;;;;;;4.40;2.35;;;34.60;91.70;;;;;;5030336;28;20441;-87
2023/07/21 09:52:40;;;;;;;6.17;2.37;;;34.70;91.30;;;;;;5048689;28;20406;-88
2023/07/21 09:55:16;;;;;;;9.27;2.50;;;34.60;91.70;;;;;;5050386;28;20424;-89
2023/07/21 09:57:48;;;;;;;8.05;2.20;;;34.60;91.50;;;;;;5024002;28;20415;-87
2023/07/21 10:00:17;;;;;;;5.53;2.50;;;34.50;90.70;;;;;;5039754;28;22860;-85
2023/07/21 10:02:52;;;;;;;4.45;2.20;;;34.70;91.30;;;;;;5029008;28;20416;-87
2023/07/21 10:05:18;;;;;;;3.80;2.30;;;34.60;91.20;;;;;;5030144;28;20421;-89
2023/07/21 10:07:49;;;;;;;4.15;2.40;;;34.60;91.40;;;;;;5060844;28;20409;-85
2023/07/21 10:10:18;;;;;;;5.35;2.58;;;34.60;91.40;;;;;;5042458;28;20546;-93
2023/07/21 10:12:52;;;;;;;7.18;2.50;;;34.70;91.90;;;;;;5025823;28;20418;-81
2023/07/21 10:15:30;;;;;;;4.95;2.35;;;34.80;91.80;;;;;;5044866;28;20738;-85
2023/07/21 10:18:09;;;;;;;4.60;2.10;;;34.80;91.60;;;;;;5027408;28;20520;-89
2023/07/21 10:20:46;;;;;;;5.57;2.45;;;34.80;92.10;;;;;;5047059;28;20411;-87
2023/07/21 10:23:16;;;;;;;6.63;2.45;;;34.80;92.30;;;;;;5028625;28;20911;-88
2023/07/21 10:25:56;;;;;;;5.93;2.30;;;34.90;92.10;;;;;;5023397;28;20417;-89
2023/07/21 10:28:42;;;;;;;6.97;2.40;;;34.80;91.40;;;;;;5037356;28;20973;-88
2023/07/21 10:31:24;;;;;;;5.28;2.40;;;34.80;92.30;;;;;;5025577;28;22459;-88
2023/07/21 10:34:17;;;;;;;8.45;2.50;;;34.80;91.50;;;;;;5034027;28;20854;-91
2023/07/21 10:36:52;;;;;;;8.38;2.50;;;34.90;91.80;;;;;;5022458;28;20417;-89
2023/07/21 10:39:42;;;;;;;3.97;2.45;;;34.80;91.50;;;;;;5027252;28;20442;-92
2023/07/21 10:42:11;;;;;;;7.25;2.50;;;34.70;91.50;;;;;;5029410;28;20417;-87
2023/07/21 10:45:09;;;;;;;8.07;2.50;;;34.60;91.80;;;;;;5028989;28;20407;-86
2023/07/21 10:47:48;;;;;;;8.18;2.15;;;34.40;90.20;;;;;;5030121;28;20409;-91
2023/07/21 10:50:14;;;;;;;6.90;2.23;;;34.50;90.60;;;;;;5038398;28;20417;-90
2023/07/21 10:52:48;;;;;;;5.75;2.45;;;34.50;90.50;;;;;;5035267;28;21412;-88
2023/07/21 10:55:21;;;;;;;4.97;2.33;;;34.40;91.30;;;;;;5035898;28;20403;-86
2023/07/21 10:57:51;;;;;;;4.53;2.35;;;34.40;91.00;;;;;;5035018;28;20397;-89
2023/07/21 11:00:19;;;;;;;6.40;2.42;;;34.50;91.40;;;;;;5031451;28;20415;-87
2023/07/21 11:02:46;;;;;;;4.82;2.10;;;34.50;89.60;;;;;;5042770;28;21090;-88
2023/07/21 11:05:16;;;;;;;6.57;2.25;;;34.60;90.20;;;;;;5047705;28;20390;-91
2023/07/21 11:07:42;;;;;;;3.60;2.20;;;34.50;89.10;;;;;;5056336;28;20401;-86
2023/07/21 11:10:09;;;;;;;4.70;2.33;;;34.60;86.10;;;;;;5048767;28;20399;-86
2023/07/21 11:12:50;;;;;;;4.57;2.30;;;34.50;86.30;;;;;;5041990;28;20421;-88
2023/07/21 11:15:31;;;;;;;3.92;2.38;;;34.60;88.70;;;;;;5047171;28;20486;-87
2023/07/21 11:18:02;;;;;;;4.00;2.40;;;34.60;88.50;;;;;;5030942;28;20404;-84
2023/07/21 11:20:37;;;;;;;4.47;2.40;;;34.60;90.10;;;;;;5049041;28;20862;-86
2023/07/21 11:23:04;;;;;;;7.00;2.38;;;34.50;89.60;;;;;;5032599;28;20457;-85
2023/07/21 11:25:31;;;;;;;7.22;2.53;;;34.60;89.90;;;;;;5055023;28;20425;-90
2023/07/21 11:28:05;;;;;;;9.57;2.60;;;34.60;90.50;;;;;;5058223;28;20417;-92
2023/07/21 11:30:32;;;;;;;3.87;2.20;;;34.70;91.00;;;;;;5018742;28;20419;-89
2023/07/21 11:33:12;;;;;;;5.63;2.50;;;34.60;90.90;;;;;;5041306;28;20502;-84
2023/07/21 11:35:52;;;;;;;6.30;2.37;;;34.60;91.10;;;;;;5067458;28;20557;-91
2023/07/21 11:38:19;;;;;;;8.97;2.87;;;34.50;91.60;;;;;;5034288;28;20452;-90
2023/07/21 11:41:32;;;;;;;7.30;2.42;;;34.40;91.50;;;;;;5012326;28;20485;-84
2023/07/21 11:43:59;;;;;;;3.50;2.33;;;34.50;91.50;;;;;;5049562;28;20413;-88
2023/07/21 11:46:25;;;;;;;6.40;2.70;;;34.50;90.80;;;;;;5048138;28;20465;-91
2023/07/21 11:48:52;;;;;;;6.07;2.43;;;34.50;91.00;;;;;;5031087;28;21262;-89
2023/07/21 11:51:28;;;;;;;9.73;2.80;;;34.40;91.40;;;;;;5031150;28;20411;-95
2023/07/21 11:53:58;;;;;;;6.65;2.50;;;34.40;91.20;;;;;;5032783;28;20401;-87
2023/07/21 11:56:24;;;;;;;6.38;2.63;;;34.50;91.30;;;;;;5033378;28;20931;-92
2023/07/21 11:58:51;;;;;;;8.38;2.75;;;34.50;90.90;;;;;;5048530;28;20435;-92
2023/07/21 12:01:18;;;;;;;4.70;2.50;;;34.50;90.50;;;;;;5013838;28;20409;-91
2023/07/21 12:03:44;;;;;;;6.15;2.47;;;34.50;90.80;;;;;;5035548;28;20463;-85
2023/07/21 12:06:12;;;;;;;5.82;2.28;;;34.50;90.10;;;;;;5043504;28;20787;-86
2023/07/21 12:08:39;;;;;;;4.35;2.47;;;34.50;90.60;;;;;;5026166;28;20443;-87
2023/07/21 12:11:05;;;;;;;5.38;2.70;;;34.50;90.60;;;;;;5021022;28;20409;-85
2023/07/21 12:13:32;;;;;;;5.80;2.55;;;34.50;90.20;;;;;;5020361;28;20492;-86
2023/07/21 12:16:03;;;;;;;6.70;2.40;;;34.50;90.40;;;;;;5043288;28;20968;-88
2023/07/21 12:18:29;;;;;;;5.53;2.60;;;34.40;90.50;;;;;;5025683;28;20448;-90
2023/07/21 12:20:56;;;;;;;7.10;2.60;;;34.50;90.00;;;;;;5023324;28;20483;-86
2023/07/21 12:23:22;;;;;;;7.13;2.40;;;34.50;88.70;;;;;;5034386;28;20409;-89
2023/07/21 12:25:48;;;;;;;6.47;2.42;;;34.50;87.20;;;;;;5033430;28;20396;-89
2023/07/21 12:28:23;;;;;;;5.10;2.25;;;34.50;87.60;;;;;;5049016;28;20406;-89
2023/07/21 12:30:51;;;;;;;5.82;2.28;;;34.40;85.30;;;;;;5036152;28;20486;-88
2023/07/21 12:33:18;;;;;;;6.22;2.60;;;34.50;87.20;;;;;;5039282;28;20464;-85
2023/07/21 12:35:46;;;;;;;5.65;2.40;;;34.50;87.50;;;;;;5049367;28;21053;-85
2023/07/21 12:38:12;;;;;;;8.45;2.70;;;34.50;86.00;;;;;;5048726;28;20413;-85
2023/07/21 12:40:39;;;;;;;4.50;2.50;;;34.50;85.50;;;;;;5032775;28;20469;-89
2023/07/21 12:43:14;;;;;;;5.72;2.60;;;34.60;86.40;;;;;;5062467;28;20886;-90
2023/07/21 12:45:42;;;;;;;5.55;2.30;;;34.50;86.90;;;;;;5038288;28;20932;-86
2023/07/21 12:48:09;;;;;;;6.80;2.70;;;34.50;86.30;;;;;;5050368;28;20459;-86
2023/07/21 12:50:35;;;;;;;6.63;2.63;;;34.60;88.80;;;;;;5040952;28;20469;-85
2023/07/21 12:53:05;;;;;;;5.60;2.33;;;34.50;85.00;;;;;;5037764;28;20408;-86
2023/07/21 12:55:32;;;;;;;4.45;2.30;;;34.60;85.90;;;;;;5036707;28;20408;-88
2023/07/21 12:57:59;;;;;;;8.82;2.58;;;34.40;83.30;;;;;;5049157;28;20437;-90
2023/07/21 13:00:26;;;;;;;6.10;2.53;;;34.50;84.90;;;;;;5019770;28;20420;-96
2023/07/21 13:02:52;;;;;;;7.20;2.35;;;34.50;82.90;;;;;;5035152;28;20504;-84
2023/07/21 13:05:19;;;;;;;3.67;2.28;;;34.60;82.60;;;;;;5029398;28;20570;-93
2023/07/21 13:07:46;;;;;;;6.65;2.42;;;34.60;81.20;;;;;;5048374;28;20926;-90
2023/07/21 13:10:13;;;;;;;4.40;2.20;;;34.70;83.90;;;;;;5051764;28;20397;-84
2023/07/21 13:12:39;;;;;;;6.05;2.58;;;34.60;79.90;;;;;;5047730;28;20409;-88
2023/07/21 13:15:07;;;;;;;7.72;2.65;;;34.70;84.40;;;;;;5047954;28;20430;-86
2023/07/21 13:17:33;;;;;;;6.75;2.45;;;34.70;81.50;;;;;;5040864;28;20405;-82
2023/07/21 13:19:59;;;;;;;5.30;2.33;;;34.70;83.20;;;;;;5063610;28;20418;-86
2023/07/21 13:22:28;;;;;;;7.05;2.67;;;34.60;82.50;;;;;;5027544;28;20443;-84
2023/07/21 13:24:54;;;;;;;6.78;2.30;;;34.70;84.00;;;;;;5047461;28;20457;-87
2023/07/21 13:27:21;;;;;;;7.28;2.63;;;34.60;82.90;;;;;;5049921;28;20411;-85
2023/07/21 13:29:47;;;;;;;5.57;2.30;;;34.50;80.20;;;;;;5036655;28;20766;-90
2023/07/21 13:32:15;;;;;;;4.60;2.50;;;34.50;80.70;;;;;;5036435;28;20404;-87
2023/07/21 13:34:41;;;;;;;6.25;2.45;;;34.50;82.50;;;;;;5051983;28;20404;-83
2023/07/21 13:37:08;;;;;;;5.78;2.85;;;34.50;81.90;;;;;;5070752;28;20408;-87
2023/07/21 13:39:34;;;;;;;7.20;2.70;;;34.50;84.10;;;;;;5033879;28;20400;-87
2023/07/21 13:42:00;;;;;;;6.63;2.28;;;34.50;82.70;;;;;;5024160;28;20408;-88
2023/07/21 13:44:33;;;;;;;7.53;2.33;;;34.50;81.90;;;;;;5036358;28;20407;-87
2023/07/21 13:47:05;;;;;;;5.82;2.50;;;34.50;82.70;;;;;;5062859;28;20405;-90
2023/07/21 13:49:31;;;;;;;8.02;2.75;;;34.40;84.00;;;;;;5044282;28;20403;-87
2023/07/21 13:51:58;;;;;;;6.88;2.50;;;34.40;82.10;;;;;;5037897;28;20476;-83
2023/07/21 13:54:25;;;;;;;5.80;2.40;;;34.40;82.40;;;;;;5046992;28;20899;-89
2023/07/21 13:56:52;;;;;;;6.07;2.47;;;34.40;81.40;;;;;;5034382;28;20397;-84
2023/07/21 13:59:22;;;;;;;5.72;2.60;;;34.40;81.10;;;;;;5019697;28;20412;-86
2023/07/21 14:02:19;;;;;;;6.63;2.50;;;34.40;81.90;;;;;;5045580;28;20447;-87
2023/07/21 14:04:45;;;;;;;5.75;2.50;;;34.30;82.20;;;;;;5014750;28;20396;-91
2023/07/21 14:07:12;;;;;;;3.33;2.10;;;34.30;81.50;;;;;;5040165;28;20393;-89
2023/07/21 14:09:39;;;;;;;4.63;2.30;;;34.20;82.50;;;;;;5023103;28;20393;-90
2023/07/21 14:12:06;;;;;;;8.20;2.63;;;34.20;79.60;;;;;;5033208;28;20394;-86
2023/07/21 14:14:33;;;;;;;5.45;2.50;;;34.20;80.20;;;;;;5023319;28;20401;-88
2023/07/21 14:16:59;;;;;;;6.32;2.20;;;34.30;80.40;;;;;;5027160;28;20810;-86
2023/07/21 14:19:25;;;;;;;4.57;2.30;;;34.30;79.70;;;;;;5036170;28;20845;-86
2023/07/21 14:21:53;;;;;;;6.75;2.88;;;34.20;82.10;;;;;;5035289;28;20403;-85
2023/07/21 14:24:20;;;;;;;7.70;2.70;;;34.10;85.50;;;;;;5030824;28;20401;-89
2023/07/21 14:26:46;;;;;;;5.80;2.70;;;34.00;86.50;;;;;;5051713;28;20662;-88
2023/07/21 14:29:12;;;;;;;5.82;2.60;;;33.90;88.80;;;;;;5031237;28;20405;-88
2023/07/21 14:31:39;;;;;;;7.78;2.80;;;33.70;89.00;;;;;;5034353;28;20412;-91
2023/07/21 14:34:08;;;;;;;7.10;2.58;;;33.70;89.50;;;;;;5051815;28;20411;-88
2023/07/21 14:36:35;;;;;;;8.13;2.30;;;33.50;87.60;;;;;;5051144;28;20411;-88
2023/07/21 14:39:04;;;;;;;4.85;2.53;;;33.40;86.80;;;;;;5028576;28;20494;-90
2023/07/21 14:41:32;;;;;;;4.35;2.47;;;33.30;86.00;;;;;;5030503;28;20417;-89
2023/07/21 14:44:05;;;;;;;5.43;2.60;;;33.30;86.70;;;;;;5042351;28;20409;-88
2023/07/21 14:46:31;;;;;;;7.63;2.80;;;33.20;88.90;;;;;;5035914;28;21129;-87
2023/07/21 14:48:59;;;;;;;7.28;2.70;;;33.10;89.90;;;;;;5032864;28;20926;-93
2023/07/21 14:51:27;;;;;;;5.27;2.60;;;33.10;89.20;;;;;;5029458;28;20429;-91
2023/07/21 14:54:00;;;;;;;6.03;2.63;;;33.00;88.30;;;;;;5050941;28;20403;-92
2023/07/21 14:56:27;;;;;;;6.50;2.78;;;32.90;89.30;;;;;;5052021;28;20435;-88
2023/07/21 14:58:54;;;;;;;8.68;2.72;;;32.80;90.90;;;;;;5029092;28;20399;-86
2023/07/21 15:01:23;;;;;;;9.05;2.60;;;32.70;91.10;;;;;;5049917;28;20443;-92
2023/07/21 15:03:49;;;;;;;9.20;2.90;;;32.60;91.70;;;;;;5028558;28;20397;-90
2023/07/21 15:06:15;;;;;;;5.95;2.67;;;32.60;91.50;;;;;;5040512;28;20392;-88
2023/07/21 15:08:42;;;;;;;5.80;2.60;;;32.50;91.90;;;;;;5045448;28;20411;-93
2023/07/21 15:11:08;;;;;;;6.57;2.77;;;32.50;92.20;;;;;;5038579;28;20455;-86
2023/07/21 15:13:35;;;;;;;6.47;2.75;;;32.30;92.30;;;;;;5034866;28;20413;-88
2023/07/21 15:16:02;;;;;;;8.60;2.90;;;32.30;93.10;;;;;;5034120;28;20407;-91
2023/07/21 15:18:28;;;;;;;7.32;2.72;;;32.30;93.10;;;;;;5033089;28;20604;-88
2023/07/21 15:20:54;;;;;;;6.50;3.17;;;32.20;93.40;;;;;;5044977;28;20438;-88